Time;durP1;ratioP1;P1;durP2;ratioP2;P2;SDS_P1;SDS_P2;PMS_P1;PMS_P2;Temp;Humidity;BMP_temperature;BMP_pressure;BME280_temperature;BME280_humidity;BME280_pressure;Samples;Min_cycle;Max_cycle;Signal;HPM_P1;HPM_P2
2023/09/24 00:00:59;;;;;;;7.10;3.38;;;13.70;99.90;;;;;;4953727;29;20035;-72
2023/09/24 00:03:26;;;;;;;6.43;3.38;;;13.60;99.90;;;;;;4935833;29;20035;-71
2023/09/24 00:05:52;;;;;;;8.68;3.60;;;13.60;99.90;;;;;;4953703;29;20031;-71
2023/09/24 00:08:19;;;;;;;7.07;3.85;;;13.60;99.90;;;;;;4952899;28;20505;-71
2023/09/24 00:10:52;;;;;;;5.43;3.17;;;13.60;99.90;;;;;;4953676;29;20023;-71
2023/09/24 00:13:21;;;;;;;8.75;3.28;;;13.60;99.90;;;;;;4953024;29;20028;-71
2023/09/24 00:15:51;;;;;;;7.68;3.47;;;13.60;99.90;;;;;;4953603;29;20031;-71
2023/09/24 00:18:20;;;;;;;6.45;3.63;;;13.60;99.90;;;;;;4935680;29;20028;-71
2023/09/24 00:20:46;;;;;;;8.38;3.00;;;13.60;99.90;;;;;;4953527;29;20023;-71
2023/09/24 00:23:14;;;;;;;6.35;3.40;;;13.50;99.90;;;;;;4935751;29;20057;-71
2023/09/24 00:25:40;;;;;;;7.50;3.75;;;13.50;99.90;;;;;;4936260;29;20035;-71
2023/09/24 00:28:07;;;;;;;4.28;3.15;;;13.50;99.90;;;;;;4952981;29;20430;-71
2023/09/24 00:30:34;;;;;;;7.05;3.30;;;13.50;99.90;;;;;;4936318;29;20034;-71
2023/09/24 00:33:00;;;;;;;8.88;3.47;;;13.40;99.90;;;;;;4935669;29;20066;-71
2023/09/24 00:35:26;;;;;;;7.18;3.10;;;13.40;99.90;;;;;;4953424;29;20027;-71
2023/09/24 00:37:52;;;;;;;12.43;3.75;;;13.40;99.90;;;;;;4952919;29;20023;-71
2023/09/24 00:40:19;;;;;;;8.60;3.45;;;13.40;99.90;;;;;;4953341;29;20020;-71
2023/09/24 00:42:45;;;;;;;7.95;3.72;;;13.30;99.90;;;;;;4935438;29;20030;-71
2023/09/24 00:45:12;;;;;;;6.43;3.22;;;13.30;99.90;;;;;;4936138;29;20027;-71
2023/09/24 00:47:42;;;;;;;6.53;3.55;;;13.30;99.90;;;;;;4952662;29;20065;-71
2023/09/24 00:50:10;;;;;;;7.57;3.38;;;13.20;99.90;;;;;;4953232;29;20035;-71
2023/09/24 00:52:36;;;;;;;8.43;3.90;;;13.30;99.90;;;;;;4952743;29;20023;-71
2023/09/24 00:55:08;;;;;;;9.20;3.83;;;13.20;99.90;;;;;;4954001;28;20024;-71
2023/09/24 00:57:35;;;;;;;9.35;3.75;;;13.20;99.90;;;;;;4956041;29;20102;-71
2023/09/24 01:00:08;;;;;;;11.63;4.35;;;13.20;99.90;;;;;;4956687;29;20054;-71
2023/09/24 01:02:36;;;;;;;9.40;4.15;;;13.20;99.90;;;;;;4955912;29;20482;-71
2023/09/24 01:05:01;;;;;;;5.68;4.13;;;13.20;99.90;;;;;;4939354;29;20055;-71
2023/09/24 01:07:28;;;;;;;8.63;4.30;;;13.20;99.90;;;;;;4955913;28;20505;-72
2023/09/24 01:09:54;;;;;;;10.30;4.60;;;13.20;99.90;;;;;;4956487;29;20015;-71
2023/09/24 01:12:26;;;;;;;11.57;4.47;;;13.10;99.90;;;;;;4955761;29;20034;-71
2023/09/24 01:14:57;;;;;;;10.85;4.18;;;13.10;99.90;;;;;;4956500;29;20486;-71
2023/09/24 01:17:24;;;;;;;8.38;4.05;;;13.10;99.90;;;;;;4955843;29;20074;-71
2023/09/24 01:19:55;;;;;;;8.88;4.60;;;13.10;99.90;;;;;;4956201;29;20038;-71
2023/09/24 01:22:21;;;;;;;8.68;4.43;;;13.00;99.90;;;;;;4955308;29;20030;-71
2023/09/24 01:24:47;;;;;;;6.68;4.07;;;13.00;99.90;;;;;;4956363;29;20028;-71
2023/09/24 01:27:13;;;;;;;9.65;4.28;;;13.00;99.90;;;;;;4955878;29;20019;-71
2023/09/24 01:29:40;;;;;;;8.55;3.92;;;13.00;99.90;;;;;;4956162;29;20071;-71
2023/09/24 01:32:06;;;;;;;8.32;4.45;;;12.90;99.90;;;;;;4955442;29;20042;-71
2023/09/24 01:34:35;;;;;;;8.27;4.28;;;12.90;99.90;;;;;;4938823;29;20023;-71
2023/09/24 01:37:09;;;;;;;7.50;4.38;;;12.90;99.90;;;;;;4955216;29;20019;-71
2023/09/24 01:39:36;;;;;;;9.07;4.20;;;12.80;99.90;;;;;;4955940;29;20051;-71
2023/09/24 01:42:03;;;;;;;9.00;4.60;;;12.80;99.90;;;;;;4955070;29;20410;-71
2023/09/24 01:44:32;;;;;;;6.93;4.20;;;12.80;99.90;;;;;;4955826;29;20106;-71
2023/09/24 01:46:58;;;;;;;6.00;4.15;;;12.80;99.90;;;;;;4938082;29;20036;-71
2023/09/24 01:49:24;;;;;;;8.00;4.70;;;12.70;99.90;;;;;;4955711;29;20027;-71
2023/09/24 01:51:50;;;;;;;8.95;4.70;;;12.70;99.90;;;;;;4955248;29;20027;-71
2023/09/24 01:54:15;;;;;;;10.65;5.38;;;12.70;99.90;;;;;;4955274;29;20475;-71
2023/09/24 01:56:41;;;;;;;8.07;4.57;;;12.60;99.90;;;;;;4937930;29;20027;-71
2023/09/24 01:59:07;;;;;;;9.13;5.20;;;12.60;99.90;;;;;;4955442;29;20110;-71
2023/09/24 02:01:33;;;;;;;8.68;4.05;;;12.70;99.90;;;;;;4955303;29;20034;-71
2023/09/24 02:03:59;;;;;;;7.82;4.90;;;12.70;99.90;;;;;;4955150;29;20378;-71
2023/09/24 02:06:25;;;;;;;9.98;5.15;;;12.70;99.90;;;;;;4954510;28;20027;-70
2023/09/24 02:08:51;;;;;;;7.35;4.60;;;12.70;99.90;;;;;;4954441;28;20031;-71
2023/09/24 02:11:18;;;;;;;8.70;4.82;;;12.60;99.90;;;;;;4955315;29;20038;-71
2023/09/24 02:13:43;;;;;;;9.02;4.75;;;12.60;99.90;;;;;;4954509;29;20027;-72
2023/09/24 02:16:09;;;;;;;9.88;5.13;;;12.60;99.90;;;;;;4955290;29;20031;-71
2023/09/24 02:18:36;;;;;;;8.70;4.45;;;12.60;99.90;;;;;;4954981;29;20034;-71
2023/09/24 02:21:01;;;;;;;7.70;4.38;;;12.50;99.90;;;;;;4955111;29;20545;-71
2023/09/24 02:23:28;;;;;;;9.25;4.93;;;12.50;99.90;;;;;;4954455;29;20027;-71
2023/09/24 02:25:55;;;;;;;9.30;5.00;;;12.50;99.90;;;;;;4955286;29;20090;-71
2023/09/24 02:28:20;;;;;;;8.30;5.15;;;12.50;99.90;;;;;;4937452;29;20122;-71
2023/09/24 02:30:47;;;;;;;10.80;4.75;;;12.50;99.90;;;;;;4954983;29;20114;-71
2023/09/24 02:33:13;;;;;;;11.43;5.00;;;12.50;99.90;;;;;;4954271;29;20111;-71
2023/09/24 02:35:39;;;;;;;10.63;4.68;;;12.50;99.90;;;;;;4955020;29;20541;-71
2023/09/24 02:38:05;;;;;;;8.30;4.93;;;12.40;99.90;;;;;;4954300;29;20062;-71
2023/09/24 02:40:31;;;;;;;9.25;4.72;;;12.40;99.90;;;;;;4954926;29;20067;-72
2023/09/24 02:43:01;;;;;;;8.90;5.38;;;12.40;99.90;;;;;;4936821;29;20031;-71
2023/09/24 02:45:29;;;;;;;6.82;4.95;;;12.40;99.90;;;;;;4954887;29;20035;-71
2023/09/24 02:47:55;;;;;;;9.30;5.03;;;12.40;99.90;;;;;;4954183;29;20023;-71
2023/09/24 02:50:23;;;;;;;9.13;4.70;;;12.30;99.90;;;;;;4954662;29;20367;-71
2023/09/24 02:52:53;;;;;;;9.50;5.00;;;12.40;99.90;;;;;;4936562;29;20034;-71
2023/09/24 02:55:20;;;;;;;6.53;4.37;;;12.30;99.90;;;;;;4954818;29;20070;-71
2023/09/24 02:57:46;;;;;;;10.90;5.25;;;12.30;99.90;;;;;;4953836;29;20058;-71
2023/09/24 03:00:26;;;;;;;8.38;5.20;;;12.30;99.90;;;;;;4954421;29;20553;-71
2023/09/24 03:02:57;;;;;;;8.18;4.65;;;12.20;99.90;;;;;;4953918;29;20023;-72
2023/09/24 03:05:24;;;;;;;8.00;4.90;;;12.20;99.90;;;;;;4954362;29;20051;-71
2023/09/24 03:07:59;;;;;;;10.05;6.00;;;12.20;99.90;;;;;;4936699;29;20371;-72
2023/09/24 03:10:26;;;;;;;7.97;4.90;;;12.20;99.90;;;;;;4953110;29;20027;-71
2023/09/24 03:12:52;;;;;;;9.07;5.28;;;12.20;99.90;;;;;;4936281;29;20052;-71
2023/09/24 03:15:19;;;;;;;10.88;5.22;;;12.10;99.90;;;;;;4954302;29;20039;-71
2023/09/24 03:17:48;;;;;;;7.75;4.70;;;12.10;99.90;;;;;;4953125;28;20020;-71
2023/09/24 03:20:17;;;;;;;8.38;5.28;;;12.10;99.90;;;;;;4937004;29;20027;-71
2023/09/24 03:22:49;;;;;;;9.82;5.00;;;12.10;99.90;;;;;;4953675;29;20051;-71
2023/09/24 03:25:20;;;;;;;8.98;5.50;;;12.10;99.90;;;;;;4954348;29;20047;-71
2023/09/24 03:27:47;;;;;;;7.47;5.35;;;12.10;99.90;;;;;;4953529;29;20033;-72
2023/09/24 03:30:17;;;;;;;7.50;4.78;;;12.00;99.90;;;;;;4954123;29;20031;-71
2023/09/24 03:32:43;;;;;;;11.18;4.90;;;12.00;99.90;;;;;;4936262;29;20036;-71
2023/09/24 03:35:10;;;;;;;10.40;5.07;;;12.00;99.90;;;;;;4953994;29;20355;-71
2023/09/24 03:37:43;;;;;;;10.88;4.97;;;12.00;99.90;;;;;;4953445;29;20549;-71
2023/09/24 03:40:11;;;;;;;12.15;5.38;;;11.90;99.90;;;;;;4953864;29;20104;-71
2023/09/24 03:42:39;;;;;;;10.95;5.47;;;11.90;99.90;;;;;;4953239;29;20027;-71
2023/09/24 03:45:08;;;;;;;10.07;5.07;;;11.90;99.90;;;;;;4954256;29;20020;-71
2023/09/24 03:47:34;;;;;;;9.40;4.93;;;11.90;99.90;;;;;;4953714;29;20019;-71
2023/09/24 03:50:00;;;;;;;9.30;5.45;;;11.80;99.90;;;;;;4954007;29;20019;-72
2023/09/24 03:52:26;;;;;;;13.93;5.80;;;11.90;99.90;;;;;;4953229;29;20019;-71
2023/09/24 03:54:52;;;;;;;8.50;5.03;;;11.80;99.90;;;;;;4953896;29;20026;-72
2023/09/24 03:57:18;;;;;;;8.05;4.60;;;11.80;99.90;;;;;;4953382;29;20482;-71
2023/09/24 03:59:43;;;;;;;8.20;5.18;;;11.80;99.90;;;;;;4953555;29;20019;-71
2023/09/24 04:02:09;;;;;;;8.02;5.03;;;11.70;99.90;;;;;;4953121;29;20103;-71
2023/09/24 04:04:36;;;;;;;9.32;5.28;;;11.70;99.90;;;;;;4953657;29;20071;-71
2023/09/24 04:07:03;;;;;;;8.07;5.15;;;11.70;99.90;;;;;;4953401;28;20027;-71
2023/09/24 04:09:32;;;;;;;8.60;5.38;;;11.70;99.90;;;;;;4952111;29;20581;-71
2023/09/24 04:12:05;;;;;;;10.52;4.85;;;11.70;99.90;;;;;;4953434;29;20417;-71
2023/09/24 04:14:31;;;;;;;7.95;5.22;;;11.70;99.90;;;;;;4953490;29;20425;-71
2023/09/24 04:16:56;;;;;;;9.20;5.32;;;11.70;99.90;;;;;;4936292;29;20115;-71
2023/09/24 04:19:24;;;;;;;7.80;5.15;;;11.60;99.90;;;;;;4953211;29;20039;-71
2023/09/24 04:21:52;;;;;;;7.15;4.95;;;11.60;99.90;;;;;;4953813;29;20020;-71
2023/09/24 04:24:19;;;;;;;9.57;5.28;;;11.60;99.90;;;;;;4952934;29;20074;-71
2023/09/24 04:26:47;;;;;;;7.63;4.88;;;11.60;99.90;;;;;;4953556;29;20110;-71
2023/09/24 04:29:15;;;;;;;7.82;5.40;;;11.60;99.90;;;;;;4952836;28;20466;-71
2023/09/24 04:31:42;;;;;;;12.63;5.35;;;11.60;99.90;;;;;;4956934;29;20023;-71
2023/09/24 04:34:09;;;;;;;7.38;4.68;;;11.50;99.90;;;;;;4956481;29;20027;-71
2023/09/24 04:36:35;;;;;;;7.10;5.05;;;11.50;99.90;;;;;;4940002;29;20059;-71
2023/09/24 04:39:02;;;;;;;8.45;5.20;;;11.50;99.90;;;;;;4956418;29;20117;-71
2023/09/24 04:41:28;;;;;;;7.28;5.03;;;11.40;99.90;;;;;;4947726;29;20066;-71
2023/09/24 04:43:53;;;;;;;8.43;4.82;;;11.40;99.90;;;;;;4955070;28;20482;-71
2023/09/24 04:46:19;;;;;;;9.82;5.00;;;11.40;99.90;;;;;;4957077;28;20163;-72
2023/09/24 04:48:45;;;;;;;12.05;5.88;;;11.30;99.90;;;;;;4956648;28;20025;-71
2023/09/24 04:51:11;;;;;;;9.05;5.22;;;11.30;99.90;;;;;;4956779;29;20550;-71
2023/09/24 04:53:38;;;;;;;8.55;5.20;;;11.30;99.90;;;;;;4956149;28;20037;-71
2023/09/24 04:56:07;;;;;;;8.32;5.07;;;11.30;99.90;;;;;;4956715;28;20016;-71
2023/09/24 04:58:32;;;;;;;9.07;5.45;;;11.30;99.90;;;;;;4956370;28;20036;-71
2023/09/24 05:01:06;;;;;;;8.90;5.55;;;11.20;99.90;;;;;;4956620;29;20409;-71
2023/09/24 05:03:33;;;;;;;11.32;5.60;;;11.20;99.90;;;;;;4956035;28;20031;-72
2023/09/24 05:05:59;;;;;;;7.25;4.82;;;11.20;99.90;;;;;;4956644;28;20102;-72
2023/09/24 05:08:24;;;;;;;8.93;5.20;;;11.20;99.90;;;;;;4955860;28;20482;-71
2023/09/24 05:10:50;;;;;;;12.43;5.00;;;11.20;99.90;;;;;;4956425;29;20394;-71
2023/09/24 05:13:16;;;;;;;8.57;4.93;;;11.10;99.90;;;;;;4955930;28;20082;-71
2023/09/24 05:15:50;;;;;;;10.70;5.22;;;11.10;99.90;;;;;;4956575;28;20517;-72
2023/09/24 05:18:16;;;;;;;7.15;4.72;;;11.10;99.90;;;;;;4955785;28;20023;-71
2023/09/24 05:20:42;;;;;;;7.70;5.05;;;11.00;99.90;;;;;;4956554;28;20030;-72
2023/09/24 05:23:08;;;;;;;8.00;5.00;;;11.00;99.90;;;;;;4955783;29;20538;-71
2023/09/24 05:25:36;;;;;;;7.35;4.88;;;10.90;99.90;;;;;;4956316;28;20486;-71
2023/09/24 05:28:02;;;;;;;9.10;4.88;;;10.90;99.90;;;;;;4955874;28;20034;-73
2023/09/24 05:30:27;;;;;;;8.85;5.15;;;10.90;99.90;;;;;;4954924;28;20035;-71
2023/09/24 05:32:54;;;;;;;7.63;4.72;;;10.80;99.90;;;;;;4955363;29;20488;-71
2023/09/24 05:35:21;;;;;;;9.45;5.00;;;10.80;99.90;;;;;;4956164;28;20020;-72
2023/09/24 05:37:47;;;;;;;7.57;4.90;;;10.80;99.90;;;;;;4955328;28;20054;-71
2023/09/24 05:40:14;;;;;;;7.82;5.32;;;10.70;99.90;;;;;;4955959;29;20481;-72
2023/09/24 05:42:41;;;;;;;7.88;5.38;;;10.70;99.90;;;;;;4938076;29;20019;-71
2023/09/24 05:45:07;;;;;;;8.77;4.90;;;10.70;99.90;;;;;;4955814;29;20041;-71
2023/09/24 05:47:33;;;;;;;8.35;4.55;;;10.70;99.90;;;;;;4955610;29;20062;-71
2023/09/24 05:49:59;;;;;;;8.15;4.70;;;10.70;99.90;;;;;;4955751;29;20423;-71
2023/09/24 05:52:25;;;;;;;7.13;5.22;;;10.70;99.90;;;;;;4955518;29;20058;-71
2023/09/24 05:54:51;;;;;;;7.68;5.80;;;10.70;99.90;;;;;;4955309;29;20059;-71
2023/09/24 05:57:17;;;;;;;8.75;6.20;;;10.70;99.90;;;;;;4955706;29;20020;-71
2023/09/24 05:59:43;;;;;;;10.32;5.70;;;10.70;99.90;;;;;;4955310;29;20549;-72
2023/09/24 06:02:09;;;;;;;8.55;5.80;;;10.70;99.90;;;;;;4955550;29;20023;-71
2023/09/24 06:04:35;;;;;;;10.32;6.10;;;10.80;99.90;;;;;;4954899;29;20438;-71
2023/09/24 06:07:00;;;;;;;9.35;6.07;;;10.80;99.90;;;;;;4955359;28;20406;-71
2023/09/24 06:09:28;;;;;;;7.35;5.57;;;10.80;99.90;;;;;;4954720;29;20486;-71
2023/09/24 06:11:55;;;;;;;9.80;5.90;;;10.80;99.90;;;;;;4955285;29;20041;-71
2023/09/24 06:14:21;;;;;;;8.73;6.00;;;10.80;99.90;;;;;;4954703;29;20054;-71
2023/09/24 06:16:47;;;;;;;10.20;5.95;;;10.80;99.90;;;;;;4938059;29;20031;-71
2023/09/24 06:19:13;;;;;;;10.88;6.13;;;10.90;99.90;;;;;;4954198;29;20031;-71
2023/09/24 06:21:39;;;;;;;11.50;6.30;;;10.90;99.90;;;;;;4955230;29;20054;-71
2023/09/24 06:24:05;;;;;;;9.50;6.47;;;10.90;99.90;;;;;;4954510;29;20426;-71
2023/09/24 06:26:31;;;;;;;11.63;6.50;;;10.90;99.90;;;;;;4955253;29;20019;-71
2023/09/24 06:28:57;;;;;;;11.07;6.28;;;11.00;99.90;;;;;;4954399;29;20101;-71
2023/09/24 06:31:22;;;;;;;9.00;6.60;;;11.00;99.90;;;;;;4955117;29;20034;-71
2023/09/24 06:33:48;;;;;;;11.32;6.30;;;11.10;99.90;;;;;;4954234;29;20506;-71
2023/09/24 06:36:14;;;;;;;10.05;6.40;;;11.10;99.90;;;;;;4938038;29;20532;-72
2023/09/24 06:38:39;;;;;;;12.93;6.57;;;11.20;99.90;;;;;;4954225;29;20410;-72
2023/09/24 06:41:05;;;;;;;15.90;6.85;;;11.30;99.90;;;;;;4954973;29;20039;-71
2023/09/24 06:43:32;;;;;;;8.82;5.53;;;11.30;99.90;;;;;;4954332;29;20051;-71
2023/09/24 06:45:58;;;;;;;12.45;6.75;;;11.40;99.90;;;;;;4954744;29;20030;-71
2023/09/24 06:48:25;;;;;;;11.48;6.57;;;11.50;99.90;;;;;;4954241;29;20035;-71
2023/09/24 06:50:53;;;;;;;8.52;6.05;;;11.50;99.90;;;;;;4954721;29;20100;-71
2023/09/24 06:53:19;;;;;;;9.13;6.00;;;11.60;99.90;;;;;;4953155;28;20114;-71
2023/09/24 06:55:45;;;;;;;9.30;6.50;;;11.60;99.90;;;;;;4954727;29;20441;-71
2023/09/24 06:58:13;;;;;;;6.10;4.72;;;11.70;99.90;;;;;;4954130;29;20015;-71
2023/09/24 07:00:39;;;;;;;8.38;5.90;;;11.80;99.90;;;;;;4954609;29;20129;-71
2023/09/24 07:03:05;;;;;;;9.48;5.53;;;11.80;99.90;;;;;;4953788;29;20022;-71
2023/09/24 07:05:31;;;;;;;9.45;6.38;;;11.90;99.90;;;;;;4954453;29;20032;-71
2023/09/24 07:07:57;;;;;;;10.70;6.90;;;12.00;99.90;;;;;;4953784;28;20038;-71
2023/09/24 07:10:23;;;;;;;11.55;6.70;;;12.00;99.90;;;;;;4954116;29;20460;-71
2023/09/24 07:12:50;;;;;;;16.30;6.75;;;12.10;99.90;;;;;;4953942;29;20023;-71
2023/09/24 07:15:16;;;;;;;10.80;6.72;;;12.10;99.90;;;;;;4954058;29;20019;-71
2023/09/24 07:17:42;;;;;;;7.70;5.65;;;12.20;99.90;;;;;;4953886;29;20019;-71
2023/09/24 07:20:09;;;;;;;10.73;5.50;;;12.20;99.90;;;;;;4936701;29;20019;-71
2023/09/24 07:22:35;;;;;;;6.90;5.13;;;12.30;99.90;;;;;;4954426;29;20023;-71
2023/09/24 07:25:00;;;;;;;11.85;6.35;;;12.30;99.90;;;;;;4953695;29;20030;-71
2023/09/24 07:27:26;;;;;;;6.80;5.50;;;12.40;99.90;;;;;;4954126;29;20466;-71
2023/09/24 07:29:52;;;;;;;9.98;5.88;;;12.50;99.90;;;;;;4953396;29;20077;-71
2023/09/24 07:32:17;;;;;;;9.82;5.60;;;12.50;99.90;;;;;;4954046;29;20062;-71
2023/09/24 07:34:46;;;;;;;10.63;5.32;;;12.50;99.90;;;;;;4953322;29;20031;-71
2023/09/24 07:37:13;;;;;;;9.40;5.35;;;12.60;99.90;;;;;;4953953;29;20016;-71
2023/09/24 07:39:39;;;;;;;10.40;6.10;;;12.60;99.90;;;;;;4953359;29;20024;-71
2023/09/24 07:42:05;;;;;;;10.63;5.70;;;12.70;99.90;;;;;;4953737;29;20395;-71
2023/09/24 07:44:31;;;;;;;10.93;5.75;;;12.70;99.90;;;;;;4936055;29;20027;-71
2023/09/24 07:46:56;;;;;;;10.93;5.55;;;12.70;99.90;;;;;;4953803;29;20034;-71
2023/09/24 07:49:22;;;;;;;10.25;5.57;;;12.80;99.90;;;;;;4953238;29;20035;-71
2023/09/24 07:51:48;;;;;;;7.93;5.47;;;12.80;99.90;;;;;;4953955;29;20027;-71
2023/09/24 07:54:13;;;;;;;7.95;5.07;;;12.90;99.90;;;;;;4953152;29;20090;-71
2023/09/24 07:56:41;;;;;;;7.45;4.55;;;12.90;99.90;;;;;;4954137;29;20354;-71
2023/09/24 07:59:07;;;;;;;8.63;4.90;;;13.00;99.90;;;;;;4953355;29;20023;-71
2023/09/24 08:01:33;;;;;;;9.85;4.63;;;13.00;99.90;;;;;;4936726;29;20035;-71
2023/09/24 08:03:59;;;;;;;9.05;4.78;;;13.10;99.90;;;;;;4936555;29;20505;-71
2023/09/24 08:06:28;;;;;;;11.77;4.72;;;13.20;99.90;;;;;;4957652;29;20398;-71
2023/09/24 08:08:55;;;;;;;9.77;4.15;;;13.30;99.90;;;;;;4957033;28;20030;-71
2023/09/24 08:11:24;;;;;;;11.48;5.00;;;13.40;99.90;;;;;;4940349;29;20443;-71
2023/09/24 08:13:50;;;;;;;7.00;3.35;;;13.40;99.90;;;;;;4956982;29;20174;-71
2023/09/24 08:16:16;;;;;;;8.10;4.43;;;13.50;99.90;;;;;;4957493;29;20467;-71
2023/09/24 08:18:44;;;;;;;8.63;3.72;;;13.50;99.90;;;;;;4956719;29;20031;-71
2023/09/24 08:21:09;;;;;;;7.63;3.55;;;13.60;99.90;;;;;;4957384;29;20027;-71
2023/09/24 08:23:35;;;;;;;6.70;3.35;;;13.70;99.90;;;;;;4939468;29;20027;-71
2023/09/24 08:26:01;;;;;;;5.07;3.25;;;13.80;99.90;;;;;;4957288;29;20023;-71
2023/09/24 08:28:26;;;;;;;7.82;3.72;;;13.80;99.90;;;;;;4956606;29;20106;-71
2023/09/24 08:30:52;;;;;;;5.78;2.72;;;13.90;99.90;;;;;;4957380;29;20020;-71
2023/09/24 08:33:18;;;;;;;8.57;3.10;;;14.00;99.90;;;;;;4956811;29;20535;-71
2023/09/24 08:35:44;;;;;;;9.55;3.40;;;14.10;99.90;;;;;;4957079;29;20398;-71
2023/09/24 08:38:10;;;;;;;6.10;2.70;;;14.20;99.90;;;;;;4956523;29;20031;-71
2023/09/24 08:40:38;;;;;;;5.53;2.42;;;14.30;99.90;;;;;;4956591;29;20042;-71
2023/09/24 08:43:09;;;;;;;8.30;2.78;;;14.40;99.90;;;;;;4956627;29;20039;-71
2023/09/24 08:45:35;;;;;;;6.20;2.50;;;14.50;99.90;;;;;;4956901;29;20038;-71
2023/09/24 08:48:07;;;;;;;6.75;2.53;;;14.60;99.90;;;;;;4939372;29;20027;-71
2023/09/24 08:50:36;;;;;;;6.40;2.20;;;14.70;99.90;;;;;;4939395;29;20028;-71
2023/09/24 08:53:05;;;;;;;8.52;2.70;;;14.80;99.90;;;;;;4956318;29;20543;-71
2023/09/24 08:55:31;;;;;;;7.53;2.63;;;14.80;99.90;;;;;;4956656;29;20111;-71
2023/09/24 08:57:57;;;;;;;8.48;3.00;;;14.90;99.90;;;;;;4956494;29;20077;-71
2023/09/24 09:00:23;;;;;;;9.23;2.55;;;15.00;99.90;;;;;;4956235;29;20019;-71
2023/09/24 09:02:48;;;;;;;7.30;2.63;;;15.10;99.90;;;;;;4956534;29;20027;-71
2023/09/24 09:05:23;;;;;;;6.28;2.50;;;15.20;99.90;;;;;;4956005;29;20386;-71
2023/09/24 09:08:02;;;;;;;7.00;3.17;;;15.30;99.90;;;;;;4956678;28;20020;-71
2023/09/24 09:10:30;;;;;;;8.00;3.13;;;15.40;99.90;;;;;;4956086;29;20027;-71
2023/09/24 09:13:05;;;;;;;8.45;3.10;;;15.50;99.90;;;;;;4956332;29;20218;-71
2023/09/24 09:15:32;;;;;;;8.13;4.55;;;15.60;99.90;;;;;;4955506;28;20058;-71
2023/09/24 09:17:58;;;;;;;10.02;4.45;;;15.70;99.90;;;;;;4956138;29;20106;-71
2023/09/24 09:20:44;;;;;;;18.55;11.95;;;15.80;99.90;;;;;;4956060;29;20540;-71
2023/09/24 09:23:13;;;;;;;32.13;19.50;;;15.90;99.90;;;;;;4955886;29;20031;-71
2023/09/24 09:25:52;;;;;;;24.42;15.50;;;16.00;99.90;;;;;;4938606;29;20505;-71
2023/09/24 09:28:34;;;;;;;8.07;3.60;;;16.00;99.90;;;;;;4955667;29;20050;-71
2023/09/24 09:31:00;;;;;;;6.75;2.90;;;16.10;99.90;;;;;;4956245;29;20043;-72
2023/09/24 09:33:27;;;;;;;9.23;4.72;;;16.20;99.90;;;;;;4955571;29;20434;-71
2023/09/24 09:35:54;;;;;;;6.70;2.97;;;16.30;99.90;;;;;;4955853;29;20019;-71
2023/09/24 09:38:20;;;;;;;8.18;3.25;;;16.40;99.90;;;;;;4955609;29;20055;-71
2023/09/24 09:40:51;;;;;;;14.05;3.42;;;16.50;99.90;;;;;;4955514;29;20035;-72
2023/09/24 09:43:22;;;;;;;18.98;7.85;;;16.60;99.90;;;;;;4955531;29;20031;-72
2023/09/24 09:45:50;;;;;;;10.85;4.30;;;16.70;99.90;;;;;;4955647;29;20031;-71
2023/09/24 09:48:20;;;;;;;13.65;6.35;;;16.80;99.90;;;;;;4955487;29;20071;-71
2023/09/24 09:50:46;;;;;;;;;;;16.90;99.90;;;;;;4955923;29;20038;-71
2023/09/24 09:53:17;;;;;;;24.70;17.33;;;17.00;99.90;;;;;;4955473;29;19910;-72
2023/09/24 09:55:44;;;;;;;26.48;13.30;;;17.00;99.90;;;;;;4955891;29;20069;-71
2023/09/24 09:58:12;;;;;;;44.03;20.20;;;17.10;99.90;;;;;;4955604;29;20423;-71
2023/09/24 10:00:39;;;;;;;8.20;3.85;;;17.20;99.90;;;;;;4955409;29;20063;-71
2023/09/24 10:03:06;;;;;;;8.32;2.80;;;17.30;99.90;;;;;;4955541;29;20027;-72
2023/09/24 10:05:33;;;;;;;8.95;3.92;;;17.30;99.90;;;;;;4955745;29;20031;-72
2023/09/24 10:07:58;;;;;;;13.45;7.15;;;17.40;99.90;;;;;;4938361;29;20511;-71
2023/09/24 10:10:42;;;;;;;26.02;11.75;;;17.50;99.90;;;;;;4954976;29;20110;-72
2023/09/24 10:13:44;;;;;;;10.27;4.38;;;17.50;99.90;;;;;;4955400;29;20398;-72
2023/09/24 10:16:25;;;;;;;7.75;2.58;;;17.60;99.90;;;;;;4938200;29;20023;-72
2023/09/24 10:18:57;;;;;;;7.05;3.17;;;17.70;99.90;;;;;;4954703;29;20528;-72
2023/09/24 10:21:38;;;;;;;5.25;2.00;;;17.70;99.90;;;;;;4955483;29;20027;-72
2023/09/24 10:24:10;;;;;;;5.45;1.88;;;17.70;99.90;;;;;;4954588;29;20090;-72
2023/09/24 10:27:03;;;;;;;8.63;3.47;;;17.80;99.90;;;;;;4937906;29;20097;-71
2023/09/24 10:29:44;;;;;;;5.80;1.85;;;17.90;99.90;;;;;;4954073;29;20103;-72
2023/09/24 10:32:14;;;;;;;7.03;4.68;;;18.00;99.90;;;;;;4955101;29;20097;-72
2023/09/24 10:34:55;;;;;;;5.65;1.85;;;18.10;99.90;;;;;;4954243;29;20031;-72
2023/09/24 10:37:29;;;;;;;5.20;2.10;;;18.20;99.90;;;;;;4955137;29;20029;-72
2023/09/24 10:39:58;;;;;;;5.93;1.95;;;18.30;99.90;;;;;;4954427;29;20023;-72
2023/09/24 10:42:45;;;;;;;8.15;1.83;;;18.40;99.90;;;;;;4954667;29;20090;-71
2023/09/24 10:45:12;;;;;;;6.78;3.40;;;18.50;99.90;;;;;;4936610;29;20035;-72
2023/09/24 10:47:42;;;;;;;9.60;4.57;;;18.60;99.90;;;;;;4954644;29;20023;-72
2023/09/24 10:50:18;;;;;;;5.05;1.67;;;18.70;99.90;;;;;;5068789;28;20131;-71
2023/09/24 10:52:52;;;;;;;8.07;2.57;;;18.70;99.90;;;;;;5069239;28;20055;-71
2023/09/24 10:55:41;;;;;;;4.65;2.17;;;18.80;99.90;;;;;;5068566;28;20025;-71
2023/09/24 10:58:14;;;;;;;10.70;4.40;;;18.90;99.90;;;;;;5069227;28;20379;-71
2023/09/24 11:00:43;;;;;;;24.70;12.15;;;19.00;99.90;;;;;;5067389;28;20047;-72
2023/09/24 11:03:13;;;;;;;10.70;4.63;;;19.00;99.90;;;;;;5068948;28;20021;-72
2023/09/24 11:05:42;;;;;;;26.35;11.65;;;19.00;99.90;;;;;;5068410;28;20025;-71
2023/09/24 11:08:08;;;;;;;25.30;11.60;;;19.10;99.90;;;;;;5068829;28;20032;-71
2023/09/24 11:10:35;;;;;;;17.27;8.13;;;19.10;99.90;;;;;;5067288;28;20013;-71
2023/09/24 11:13:03;;;;;;;11.35;5.18;;;19.10;99.90;;;;;;5068785;28;20013;-71
2023/09/24 11:15:34;;;;;;;17.10;9.82;;;19.20;99.90;;;;;;5068378;28;20403;-71
2023/09/24 11:17:59;;;;;;;;;;;19.30;99.90;;;;;;5069203;28;20542;-71
2023/09/24 11:20:28;;;;;;;10.98;3.92;;;19.30;99.90;;;;;;5068069;28;19944;-71
2023/09/24 11:23:11;;;;;;;7.20;3.83;;;19.40;99.90;;;;;;5068623;28;20104;-71
2023/09/24 11:25:37;;;;;;;13.07;7.60;;;19.50;99.90;;;;;;5068254;28;20060;-71
2023/09/24 11:28:05;;;;;;;6.45;2.80;;;19.60;99.90;;;;;;5067260;28;20120;-71
2023/09/24 11:30:44;;;;;;;20.02;9.27;;;19.60;99.90;;;;;;5100617;28;20020;-72
2023/09/24 11:33:11;;;;;;;14.05;7.53;;;19.70;99.90;;;;;;5068469;28;20111;-72
2023/09/24 11:35:37;;;;;;;28.08;10.02;;;19.70;99.60;;;;;;5067768;28;20021;-71
2023/09/24 11:38:03;;;;;;;127.10;52.63;;;19.70;99.50;;;;;;5068314;28;20075;-71
2023/09/24 11:40:29;;;;;;;41.83;17.73;;;19.70;99.90;;;;;;5067684;28;20021;-71
2023/09/24 11:43:04;;;;;;;26.38;13.15;;;19.80;99.60;;;;;;5068364;28;20052;-71
2023/09/24 11:45:40;;;;;;;26.25;13.52;;;19.90;99.70;;;;;;5067570;28;20017;-71
2023/09/24 11:48:11;;;;;;;56.38;27.60;;;19.90;99.30;;;;;;5067652;28;20028;-71
2023/09/24 11:50:42;;;;;;;11.90;5.57;;;20.00;99.90;;;;;;5067467;28;20028;-71
2023/09/24 11:53:08;;;;;;;15.77;8.40;;;20.10;99.60;;;;;;5068157;28;20028;-71
2023/09/24 11:55:34;;;;;;;8.32;4.50;;;20.10;98.50;;;;;;5067295;28;20021;-71
2023/09/24 11:58:00;;;;;;;7.22;3.53;;;20.10;98.20;;;;;;5067844;28;20021;-72
2023/09/24 12:00:26;;;;;;;31.15;13.75;;;20.20;98.00;;;;;;5060428;28;20017;-72
2023/09/24 12:02:51;;;;;;;6.90;2.22;;;20.20;98.00;;;;;;5054635;28;20035;-71
2023/09/24 12:05:17;;;;;;;9.23;3.25;;;20.30;97.40;;;;;;5054093;28;20021;-71
2023/09/24 12:07:43;;;;;;;6.20;2.92;;;20.30;97.40;;;;;;5054724;28;20017;-72
2023/09/24 12:10:09;;;;;;;31.05;15.85;;;20.40;96.50;;;;;;5053872;28;20017;-71
2023/09/24 12:12:34;;;;;;;13.00;6.63;;;20.40;96.70;;;;;;5054574;28;20052;-71
2023/09/24 12:15:01;;;;;;;25.83;13.25;;;20.50;97.30;;;;;;5053651;28;20021;-71
2023/09/24 12:17:27;;;;;;;16.30;12.38;;;20.60;97.60;;;;;;5054345;28;20025;-72
2023/09/24 12:19:53;;;;;;;11.07;5.13;;;20.70;96.50;;;;;;5052407;28;20025;-71
2023/09/24 12:22:19;;;;;;;8.10;4.40;;;20.60;96.30;;;;;;5054221;28;20031;-71
2023/09/24 12:24:44;;;;;;;11.43;6.20;;;20.70;96.60;;;;;;5053931;28;20036;-71
2023/09/24 12:27:11;;;;;;;39.17;23.08;;;20.70;96.40;;;;;;5054153;28;20554;-71
2023/09/24 12:29:36;;;;;;;10.00;5.80;;;20.70;96.50;;;;;;5052193;28;20036;-71
2023/09/24 12:32:02;;;;;;;6.85;3.70;;;20.80;96.40;;;;;;5054093;28;20107;-71
2023/09/24 12:34:28;;;;;;;7.22;3.22;;;20.80;95.60;;;;;;5053531;28;20096;-71
2023/09/24 12:36:54;;;;;;;9.52;5.88;;;20.70;95.60;;;;;;5054002;28;20541;-71
2023/09/24 12:39:20;;;;;;;10.80;5.95;;;20.70;95.60;;;;;;5053185;28;20494;-70
2023/09/24 12:41:49;;;;;;;29.17;19.92;;;20.70;95.60;;;;;;5052474;28;20039;-71
2023/09/24 12:44:15;;;;;;;6.85;3.13;;;20.60;95.70;;;;;;5053209;28;20025;-71
2023/09/24 12:46:41;;;;;;;10.75;4.95;;;20.70;95.10;;;;;;5053667;28;20163;-71